Time;durP1;ratioP1;P1;durP2;ratioP2;P2;SDS_P1;SDS_P2;PMS_P1;PMS_P2;Temp;Humidity;BMP_temperature;BMP_pressure;BME280_temperature;BME280_humidity;BME280_pressure;Samples;Min_cycle;Max_cycle;Signal;HPM_P1;HPM_P2
2023/08/28 00:00:35;;;;;;;0.30;0.30;;;13.30;99.90;;;;;;5155285;27;20083;-64
2023/08/28 00:03:01;;;;;;;0.32;0.32;;;14.00;99.90;;;;;;5154972;27;20059;-64
2023/08/28 00:05:30;;;;;;;0.30;0.30;;;13.40;99.90;;;;;;5155271;27;20133;-64
2023/08/28 00:07:56;;;;;;;0.20;0.20;;;14.30;99.90;;;;;;5155115;27;20046;-64
2023/08/28 00:10:22;;;;;;;0.15;0.15;;;11.10;99.90;;;;;;5155176;27;20150;-64
2023/08/28 00:12:48;;;;;;;0.20;0.20;;;14.00;99.90;;;;;;5154705;27;20458;-64
2023/08/28 00:15:13;;;;;;;0.30;0.30;;;12.80;99.90;;;;;;5154948;27;20138;-64
2023/08/28 00:17:39;;;;;;;0.20;0.20;;;12.10;99.90;;;;;;5154983;27;20038;-64
2023/08/28 00:20:08;;;;;;;0.20;0.20;;;10.90;99.90;;;;;;5154963;27;20075;-64
2023/08/28 00:22:37;;;;;;;0.20;0.20;;;12.60;99.90;;;;;;5154877;27;20132;-64
2023/08/28 00:25:09;;;;;;;0.22;0.22;;;10.10;99.90;;;;;;5153803;27;20054;-64
2023/08/28 00:27:35;;;;;;;0.25;0.25;;;12.20;99.90;;;;;;5154756;27;20050;-64
2023/08/28 00:30:03;;;;;;;0.20;0.20;;;10.40;99.90;;;;;;5154648;27;20049;-64
2023/08/28 00:32:29;;;;;;;0.20;0.20;;;11.00;99.90;;;;;;5154659;27;20119;-63
2023/08/28 00:34:55;;;;;;;0.22;0.22;;;11.70;99.90;;;;;;5154535;27;20062;-65
2023/08/28 00:37:20;;;;;;;0.50;0.50;;;10.90;99.90;;;;;;5154542;27;20046;-64
2023/08/28 00:39:46;;;;;;;1.25;0.40;;;13.60;99.90;;;;;;5154561;27;20069;-63
2023/08/28 00:42:12;;;;;;;0.22;0.22;;;11.20;99.90;;;;;;5154455;27;20042;-64
2023/08/28 00:44:38;;;;;;;0.20;0.20;;;13.90;99.90;;;;;;5154625;27;20115;-64
2023/08/28 00:47:07;;;;;;;0.30;0.30;;;10.50;99.90;;;;;;5155050;27;20042;-62
2023/08/28 00:49:33;;;;;;;0.30;0.30;;;12.60;99.90;;;;;;5136080;27;20050;-62
2023/08/28 00:52:00;;;;;;;1.45;0.45;;;11.40;99.90;;;;;;5154328;27;20191;-62
2023/08/28 00:54:26;;;;;;;0.20;0.20;;;11.80;99.90;;;;;;5154697;27;20055;-63
2023/08/28 00:56:53;;;;;;;;;;;10.70;99.90;;;;;;5154847;27;20078;-63
2023/08/28 00:59:19;;;;;;;0.20;0.20;;;13.30;99.90;;;;;;5154331;27;19919;-62
2023/08/28 01:01:44;;;;;;;0.17;0.17;;;12.80;99.90;;;;;;5154186;27;20114;-63
2023/08/28 01:04:10;;;;;;;0.28;0.28;;;12.00;99.90;;;;;;5153996;27;20055;-63
2023/08/28 01:06:53;;;;;;;0.30;0.30;;;11.60;99.90;;;;;;5154242;27;20047;-65
2023/08/28 01:09:24;;;;;;;0.22;0.22;;;14.90;99.90;;;;;;5154127;27;20080;-63
2023/08/28 01:12:10;;;;;;;0.25;0.25;;;11.20;99.90;;;;;;5154119;27;20397;-63
2023/08/28 01:14:49;;;;;;;0.20;0.20;;;11.40;99.90;;;;;;5153887;27;20091;-65
2023/08/28 01:17:17;;;;;;;0.30;0.30;;;15.00;99.90;;;;;;5153959;27;20495;-64
2023/08/28 01:19:44;;;;;;;0.20;0.20;;;11.20;99.90;;;;;;5153467;27;20512;-65
2023/08/28 01:22:32;;;;;;;0.80;0.73;;;11.40;99.90;;;;;;5153388;27;20487;-63
2023/08/28 01:25:09;;;;;;;0.30;0.30;;;11.10;99.90;;;;;;5153631;27;20042;-64
2023/08/28 01:27:37;;;;;;;0.35;0.35;;;13.30;99.90;;;;;;5153597;27;20398;-64
2023/08/28 01:30:16;;;;;;;0.15;0.15;;;13.90;99.90;;;;;;5153604;27;20767;-64
2023/08/28 01:32:45;;;;;;;0.20;0.20;;;14.00;99.90;;;;;;5153577;27;20066;-63
2023/08/28 01:35:25;;;;;;;0.65;0.28;;;10.40;99.90;;;;;;5153451;27;20047;-63
2023/08/28 01:38:02;;;;;;;0.20;0.20;;;12.60;99.90;;;;;;5153157;27;20043;-64
2023/08/28 01:40:46;;;;;;;0.40;0.20;;;10.60;99.90;;;;;;5153533;27;20143;-64
2023/08/28 01:43:17;;;;;;;0.20;0.20;;;14.10;99.90;;;;;;5153357;27;20482;-65
2023/08/28 01:45:43;;;;;;;0.20;0.20;;;14.00;99.90;;;;;;5153143;27;20462;-64
2023/08/28 01:48:08;;;;;;;0.20;0.20;;;13.10;99.90;;;;;;5153307;27;20078;-63
2023/08/28 01:50:34;;;;;;;0.30;0.30;;;11.30;99.90;;;;;;5153310;27;20432;-64
2023/08/28 01:53:00;;;;;;;0.20;0.20;;;13.00;99.90;;;;;;5153271;27;20069;-64
2023/08/28 01:55:44;;;;;;;0.22;0.22;;;10.70;99.90;;;;;;5153119;27;20474;-63
2023/08/28 01:58:10;;;;;;;0.30;0.30;;;12.70;99.90;;;;;;5153192;27;20095;-64
2023/08/28 02:00:36;;;;;;;0.28;0.28;;;13.00;99.90;;;;;;5153158;27;20424;-63
2023/08/28 02:03:01;;;;;;;0.20;0.20;;;11.70;99.90;;;;;;5152934;27;20065;-64
2023/08/28 02:05:27;;;;;;;0.30;0.30;;;10.20;99.90;;;;;;5153057;27;20054;-64
2023/08/28 02:07:53;;;;;;;0.30;0.30;;;11.40;99.90;;;;;;5153184;27;20061;-64
2023/08/28 02:10:18;;;;;;;0.10;0.10;;;12.80;99.90;;;;;;5153218;27;20046;-66
2023/08/28 02:12:44;;;;;;;0.25;0.22;;;10.30;99.90;;;;;;5153006;27;20045;-64
2023/08/28 02:15:10;;;;;;;0.30;0.30;;;13.40;99.90;;;;;;5152921;27;20047;-64
2023/08/28 02:17:35;;;;;;;0.95;0.95;;;14.40;99.90;;;;;;5152902;27;20053;-64
2023/08/28 02:20:01;;;;;;;0.28;0.28;;;13.60;99.90;;;;;;5134404;27;20088;-64
2023/08/28 02:22:27;;;;;;;0.10;0.10;;;12.60;99.90;;;;;;5153186;27;20084;-64
2023/08/28 02:24:52;;;;;;;0.20;0.20;;;12.10;99.90;;;;;;5152850;27;20133;-64
2023/08/28 02:27:18;;;;;;;0.20;0.20;;;10.70;99.90;;;;;;5152891;27;20074;-64
2023/08/28 02:29:43;;;;;;;0.30;0.30;;;11.30;99.90;;;;;;5152773;27;20046;-63
2023/08/28 02:32:09;;;;;;;0.20;0.20;;;14.50;99.90;;;;;;5152828;27;20047;-64
2023/08/28 02:34:35;;;;;;;0.40;0.30;;;13.60;99.90;;;;;;5152875;27;20043;-64
2023/08/28 02:37:00;;;;;;;0.30;0.30;;;11.60;99.90;;;;;;5152739;27;20046;-64
2023/08/28 02:39:27;;;;;;;0.30;0.30;;;14.90;99.90;;;;;;5152812;27;20061;-64
2023/08/28 02:41:52;;;;;;;0.38;0.38;;;12.40;99.90;;;;;;5152645;27;20043;-64
2023/08/28 02:44:18;;;;;;;0.20;0.20;;;14.50;99.90;;;;;;5153006;27;20473;-64
2023/08/28 02:46:44;;;;;;;0.30;0.30;;;10.60;99.90;;;;;;5153055;27;20470;-64
2023/08/28 02:49:09;;;;;;;3.33;0.65;;;10.70;99.90;;;;;;5154644;27;20046;-64
2023/08/28 02:51:36;;;;;;;0.20;0.20;;;11.10;99.90;;;;;;5156508;27;20509;-64
2023/08/28 02:54:01;;;;;;;0.22;0.22;;;11.30;99.90;;;;;;5156479;27;20229;-64
2023/08/28 02:56:37;;;;;;;0.20;0.20;;;13.00;99.90;;;;;;5156526;27;20141;-64
2023/08/28 02:59:03;;;;;;;0.20;0.20;;;10.90;99.90;;;;;;5156740;27;20046;-64
2023/08/28 03:01:34;;;;;;;0.20;0.20;;;14.40;99.90;;;;;;5155957;27;20084;-64
2023/08/28 03:04:04;;;;;;;0.10;0.10;;;10.60;99.90;;;;;;5137874;27;20137;-63
2023/08/28 03:06:33;;;;;;;0.10;0.10;;;14.30;99.90;;;;;;5156379;27;20474;-63
2023/08/28 03:08:59;;;;;;;0.20;0.20;;;13.40;99.90;;;;;;5156272;27;20056;-64
2023/08/28 03:11:24;;;;;;;0.57;0.47;;;10.40;99.90;;;;;;5137636;27;20383;-64
2023/08/28 03:13:50;;;;;;;0.20;0.20;;;14.60;99.90;;;;;;5156139;27;20057;-64
2023/08/28 03:16:16;;;;;;;0.20;0.20;;;10.30;99.90;;;;;;5156142;27;20367;-64
2023/08/28 03:18:41;;;;;;;0.20;0.20;;;10.40;99.90;;;;;;5156101;27;20043;-64
2023/08/28 03:21:07;;;;;;;0.20;0.20;;;10.80;99.90;;;;;;5156329;27;20047;-64
2023/08/28 03:23:33;;;;;;;0.20;0.20;;;10.20;99.90;;;;;;5156058;27;20397;-64
2023/08/28 03:25:59;;;;;;;0.20;0.20;;;11.10;99.90;;;;;;5155862;27;20561;-64
2023/08/28 03:28:25;;;;;;;0.15;0.15;;;13.80;99.90;;;;;;5155961;27;20103;-64
2023/08/28 03:30:50;;;;;;;0.20;0.20;;;11.20;99.90;;;;;;5155916;27;20092;-64
2023/08/28 03:33:16;;;;;;;0.38;0.30;;;12.60;99.90;;;;;;5155920;27;20086;-63
2023/08/28 03:35:42;;;;;;;0.10;0.10;;;13.40;99.90;;;;;;5155655;27;20130;-64
2023/08/28 03:38:07;;;;;;;0.20;0.20;;;13.00;99.90;;;;;;5155691;27;20466;-64
2023/08/28 03:40:35;;;;;;;0.25;0.25;;;10.00;99.90;;;;;;5155686;27;20050;-64
2023/08/28 03:43:00;;;;;;;0.20;0.20;;;12.40;99.90;;;;;;5155520;27;20045;-64
2023/08/28 03:45:26;;;;;;;0.20;0.20;;;9.80;99.90;;;;;;5155659;27;20042;-62
2023/08/28 03:47:52;;;;;;;;;;;9.90;99.90;;;;;;5156027;27;20052;-63
2023/08/28 03:50:18;;;;;;;0.20;0.20;;;13.10;99.90;;;;;;5155583;27;20424;-64
2023/08/28 03:52:43;;;;;;;0.20;0.20;;;9.90;99.90;;;;;;5155557;27;20428;-64
2023/08/28 03:55:10;;;;;;;0.30;0.30;;;10.70;99.90;;;;;;5155722;27;20530;-63
2023/08/28 03:57:36;;;;;;;0.20;0.20;;;11.70;99.90;;;;;;5155610;27;20055;-64
2023/08/28 04:00:07;;;;;;;0.65;0.65;;;13.30;99.90;;;;;;5136790;27;20050;-63
2023/08/28 04:02:34;;;;;;;0.30;0.30;;;9.90;99.90;;;;;;5155418;27;20047;-64
2023/08/28 04:05:03;;;;;;;0.20;0.20;;;9.80;99.90;;;;;;5155044;27;20082;-63
2023/08/28 04:07:29;;;;;;;0.30;0.30;;;13.50;99.90;;;;;;5155095;27;20141;-64
2023/08/28 04:09:55;;;;;;;;;;;13.70;99.90;;;;;;5155451;27;20046;-64
2023/08/28 04:12:20;;;;;;;0.30;0.30;;;13.20;99.90;;;;;;5155077;27;19919;-63
2023/08/28 04:14:46;;;;;;;0.30;0.30;;;10.00;99.90;;;;;;5155118;27;20232;-63
2023/08/28 04:17:12;;;;;;;0.25;0.25;;;12.60;99.90;;;;;;5154891;27;20309;-63
2023/08/28 04:19:37;;;;;;;0.30;0.30;;;13.60;99.90;;;;;;5154928;27;20790;-64
2023/08/28 04:22:03;;;;;;;0.15;0.15;;;10.60;99.90;;;;;;5154793;27;20043;-64
2023/08/28 04:24:29;;;;;;;0.20;0.20;;;12.80;99.90;;;;;;5154960;27;20042;-63
2023/08/28 04:26:55;;;;;;;0.30;0.30;;;13.70;99.90;;;;;;5154964;27;20076;-63
2023/08/28 04:29:20;;;;;;;0.30;0.30;;;10.70;99.90;;;;;;5155147;27;20138;-63
2023/08/28 04:31:46;;;;;;;0.30;0.30;;;13.10;99.90;;;;;;5154882;27;20079;-63
2023/08/28 04:34:11;;;;;;;0.20;0.20;;;11.10;99.90;;;;;;5154931;27;20050;-63
2023/08/28 04:36:37;;;;;;;0.20;0.20;;;12.30;99.90;;;;;;5154701;27;20047;-63
2023/08/28 04:39:03;;;;;;;0.38;0.38;;;10.50;99.90;;;;;;5155078;27;20047;-63
2023/08/28 04:41:28;;;;;;;0.52;0.20;;;10.20;99.90;;;;;;5154721;27;20042;-64
2023/08/28 04:43:54;;;;;;;0.35;0.35;;;13.50;99.90;;;;;;5154715;27;20455;-63
2023/08/28 04:46:20;;;;;;;0.35;0.35;;;10.00;99.90;;;;;;5154605;27;20042;-63
2023/08/28 04:48:45;;;;;;;0.40;0.40;;;12.40;99.90;;;;;;5136551;27;20049;-63
2023/08/28 04:51:11;;;;;;;0.20;0.20;;;10.60;99.90;;;;;;5154701;27;20474;-63
2023/08/28 04:53:36;;;;;;;2.25;0.50;;;11.80;99.90;;;;;;5154593;27;20039;-63
2023/08/28 04:56:02;;;;;;;0.20;0.20;;;10.50;99.90;;;;;;5154473;27;20039;-63
2023/08/28 04:58:28;;;;;;;0.20;0.20;;;11.80;99.90;;;;;;5154386;27;20049;-63
2023/08/28 05:00:54;;;;;;;0.20;0.20;;;13.80;99.90;;;;;;5154210;27;20477;-65
2023/08/28 05:03:19;;;;;;;0.45;0.45;;;13.80;99.90;;;;;;5154030;27;20045;-65
2023/08/28 05:05:45;;;;;;;0.20;0.20;;;14.10;99.90;;;;;;5154098;27;20059;-64
2023/08/28 05:08:11;;;;;;;0.20;0.20;;;13.70;99.90;;;;;;5153995;27;20050;-64
2023/08/28 05:10:37;;;;;;;0.20;0.20;;;10.00;99.90;;;;;;5153903;27;20046;-64
2023/08/28 05:13:02;;;;;;;0.20;0.20;;;11.40;99.90;;;;;;5153331;27;20352;-63
2023/08/28 05:15:28;;;;;;;0.20;0.20;;;12.60;99.90;;;;;;5153823;27;20490;-63
2023/08/28 05:17:54;;;;;;;0.40;0.40;;;13.00;99.90;;;;;;5153489;27;20050;-64
2023/08/28 05:20:19;;;;;;;0.20;0.20;;;10.60;99.90;;;;;;5153222;27;20070;-64
2023/08/28 05:22:45;;;;;;;0.10;0.10;;;13.10;99.90;;;;;;5153458;27;20061;-64
2023/08/28 05:25:11;;;;;;;0.28;0.28;;;10.30;99.90;;;;;;5153528;27;20067;-65
2023/08/28 05:27:36;;;;;;;0.20;0.20;;;10.20;99.90;;;;;;5153551;27;20107;-64
2023/08/28 05:30:02;;;;;;;0.30;0.30;;;13.30;99.90;;;;;;5153578;27;20054;-63
2023/08/28 05:32:28;;;;;;;0.30;0.30;;;10.10;99.90;;;;;;5153637;27;20386;-64
2023/08/28 05:34:57;;;;;;;0.22;0.22;;;10.60;99.90;;;;;;5153533;27;20086;-63
2023/08/28 05:37:26;;;;;;;0.40;0.40;;;11.80;99.90;;;;;;5153535;27;20127;-63
2023/08/28 05:39:52;;;;;;;0.20;0.20;;;10.50;99.90;;;;;;5134968;27;20086;-65
2023/08/28 05:42:19;;;;;;;0.30;0.30;;;12.70;99.90;;;;;;5153042;27;20474;-63
2023/08/28 05:44:45;;;;;;;;;;;12.50;99.90;;;;;;5153875;27;20046;-64
2023/08/28 05:47:11;;;;;;;0.20;0.20;;;9.70;99.90;;;;;;5153397;27;19980;-63
2023/08/28 05:49:37;;;;;;;0.35;0.35;;;10.90;99.90;;;;;;5153344;27;20050;-63
2023/08/28 05:52:03;;;;;;;0.20;0.20;;;9.70;99.90;;;;;;5150660;27;20051;-66
2023/08/28 05:54:30;;;;;;;0.20;0.20;;;13.80;99.90;;;;;;5135615;27;20043;-66
2023/08/28 05:56:56;;;;;;;0.40;0.40;;;10.10;99.90;;;;;;5135272;27;20175;-61
2023/08/28 05:59:22;;;;;;;0.20;0.20;;;13.10;99.90;;;;;;5149803;27;20125;-61
2023/08/28 06:01:47;;;;;;;0.13;0.13;;;13.20;99.90;;;;;;5133115;27;20123;-60
2023/08/28 06:04:13;;;;;;;0.20;0.20;;;13.90;99.90;;;;;;5141946;27;20976;-60
2023/08/28 06:06:39;;;;;;;0.10;0.10;;;12.90;99.90;;;;;;5134339;27;20418;-61
2023/08/28 06:09:05;;;;;;;0.20;0.20;;;9.80;99.90;;;;;;5144429;27;20038;-60
2023/08/28 06:11:31;;;;;;;;;;;12.30;99.90;;;;;;5136410;27;20103;-59
2023/08/28 06:13:58;;;;;;;0.20;0.20;;;13.40;99.90;;;;;;5132137;27;20414;-60
2023/08/28 06:16:23;;;;;;;0.10;0.10;;;11.40;99.90;;;;;;5131769;27;20143;-59
2023/08/28 06:18:49;;;;;;;0.20;0.20;;;11.30;99.90;;;;;;5132457;27;20096;-61
2023/08/28 06:21:15;;;;;;;0.32;0.32;;;15.00;99.90;;;;;;5136871;27;20051;-61
2023/08/28 06:23:41;;;;;;;0.20;0.20;;;13.50;99.90;;;;;;5138921;27;20140;-60
2023/08/28 06:26:07;;;;;;;0.15;0.15;;;15.40;99.90;;;;;;5136220;27;20115;-61
2023/08/28 06:28:34;;;;;;;0.10;0.10;;;11.30;99.90;;;;;;5135905;27;20047;-61
2023/08/28 06:31:02;;;;;;;0.20;0.20;;;11.30;99.90;;;;;;5135781;27;20158;-62
2023/08/28 06:33:27;;;;;;;0.13;0.13;;;16.00;99.90;;;;;;5136127;27;20074;-61
2023/08/28 06:35:53;;;;;;;0.40;0.40;;;14.20;99.90;;;;;;5136129;27;20535;-64
2023/08/28 06:38:19;;;;;;;0.20;0.20;;;11.50;99.90;;;;;;5136336;27;20483;-62
2023/08/28 06:40:52;;;;;;;0.20;0.20;;;12.70;99.90;;;;;;5136053;27;20154;-61
2023/08/28 06:43:17;;;;;;;0.17;0.17;;;12.40;99.90;;;;;;5135849;27;20043;-61
2023/08/28 06:45:47;;;;;;;0.20;0.20;;;14.30;99.90;;;;;;5135886;27;20053;-62
2023/08/28 06:48:13;;;;;;;0.17;0.17;;;12.40;99.90;;;;;;5135907;27;20128;-61
2023/08/28 06:50:38;;;;;;;0.30;0.30;;;14.10;99.90;;;;;;5135878;27;20078;-62
2023/08/28 06:53:04;;;;;;;0.35;0.35;;;12.80;99.90;;;;;;5135748;27;20050;-62
2023/08/28 06:55:32;;;;;;;0.20;0.20;;;11.70;99.90;;;;;;5135744;27;20043;-61
2023/08/28 06:57:58;;;;;;;0.25;0.25;;;15.90;99.90;;;;;;5135699;27;20039;-61
2023/08/28 07:00:24;;;;;;;;;;;16.00;99.90;;;;;;5135774;27;20575;-63
2023/08/28 07:02:50;;;;;;;0.10;0.10;;;16.40;99.90;;;;;;5135394;27;19970;-62
2023/08/28 07:05:16;;;;;;;0.13;0.13;;;13.60;99.90;;;;;;5135122;27;20112;-62
2023/08/28 07:07:42;;;;;;;0.20;0.20;;;14.60;99.90;;;;;;5135477;27;20054;-62
2023/08/28 07:10:08;;;;;;;0.10;0.10;;;12.90;99.90;;;;;;5135303;27;20043;-62
2023/08/28 07:12:33;;;;;;;;;;;13.00;99.90;;;;;;5135761;27;20042;-63
2023/08/28 07:15:25;;;;;;;0.30;0.30;;;15.80;99.90;;;;;;5135362;27;19923;-62
2023/08/28 07:17:51;;;;;;;0.50;0.50;;;17.00;99.90;;;;;;5103357;27;20055;-63
2023/08/28 07:20:16;;;;;;;0.20;0.20;;;17.50;99.90;;;;;;5135125;27;20084;-62
2023/08/28 07:22:42;;;;;;;;;;;14.10;99.90;;;;;;5135307;27;20047;-61
2023/08/28 07:25:08;;;;;;;0.15;0.15;;;14.80;99.90;;;;;;5134982;27;20358;-63
2023/08/28 07:27:34;;;;;;;0.20;0.20;;;17.10;99.90;;;;;;5134729;27;20068;-62
2023/08/28 07:30:04;;;;;;;0.40;0.40;;;14.30;99.90;;;;;;5134987;27;20047;-62
2023/08/28 07:32:32;;;;;;;0.90;0.50;;;17.70;99.90;;;;;;5134871;27;20094;-62
2023/08/28 07:35:00;;;;;;;0.20;0.20;;;15.00;99.90;;;;;;5134117;27;20486;-62
2023/08/28 07:37:29;;;;;;;0.55;0.20;;;16.40;99.90;;;;;;5134831;27;20065;-63
2023/08/28 07:39:54;;;;;;;0.20;0.20;;;16.30;99.90;;;;;;5134715;27;20047;-62
2023/08/28 07:42:20;;;;;;;0.20;0.20;;;16.30;99.90;;;;;;5134870;27;20050;-62
2023/08/28 07:44:47;;;;;;;;;;;15.80;99.90;;;;;;5135345;27;20554;-63
2023/08/28 07:47:12;;;;;;;0.10;0.10;;;14.90;99.90;;;;;;5134805;27;19919;-63
2023/08/28 07:49:38;;;;;;;;;;;15.40;99.90;;;;;;5134951;27;20180;-62
2023/08/28 07:52:04;;;;;;;0.10;0.10;;;15.80;99.90;;;;;;5134559;27;19923;-62
2023/08/28 07:54:30;;;;;;;0.10;0.10;;;15.60;99.90;;;;;;5116328;27;20060;-64
2023/08/28 07:56:55;;;;;;;;;;;15.40;99.90;;;;;;5134985;27;20043;-63
2023/08/28 07:59:21;;;;;;;0.10;0.10;;;15.60;99.90;;;;;;5134793;27;19930;-62
2023/08/28 08:01:47;;;;;;;;;;;15.60;99.90;;;;;;5134992;27;20502;-62
2023/08/28 08:04:13;;;;;;;0.10;0.10;;;15.60;99.90;;;;;;5134437;27;19927;-62
2023/08/28 08:06:39;;;;;;;;;;;16.10;99.90;;;;;;5116721;27;20051;-62
2023/08/28 08:09:04;;;;;;;0.20;0.20;;;15.90;99.90;;;;;;5134388;27;19920;-62
2023/08/28 08:11:30;;;;;;;;;;;16.40;99.90;;;;;;5134842;27;20047;-62
2023/08/28 08:13:56;;;;;;;0.10;0.10;;;16.60;99.90;;;;;;5134203;27;20026;-61
2023/08/28 08:16:21;;;;;;;;;;;16.60;99.90;;;;;;5134504;27;20054;-61
2023/08/28 08:18:47;;;;;;;0.17;0.17;;;16.20;99.90;;;;;;5134075;27;20379;-62
2023/08/28 08:21:13;;;;;;;;;;;16.80;99.90;;;;;;5134580;27;20046;-62
2023/08/28 08:23:39;;;;;;;0.10;0.10;;;16.20;99.90;;;;;;5133963;27;19927;-63
2023/08/28 08:26:05;;;;;;;0.20;0.20;;;16.00;99.90;;;;;;5133995;27;20122;-62
2023/08/28 08:28:32;;;;;;;;;;;16.30;99.90;;;;;;5134469;27;20646;-61
2023/08/28 08:30:58;;;;;;;0.38;0.38;;;16.50;99.90;;;;;;5133897;27;19927;-62
2023/08/28 08:33:23;;;;;;;;;;;16.90;99.90;;;;;;5134512;27;20134;-61
2023/08/28 08:35:49;;;;;;;0.10;0.10;;;16.90;99.90;;;;;;5133884;27;20385;-62
2023/08/28 08:38:15;;;;;;;;;;;16.80;99.90;;;;;;5134210;27;20439;-62
2023/08/28 08:40:42;;;;;;;0.30;0.30;;;16.70;99.90;;;;;;5133772;27;20456;-61
2023/08/28 08:43:08;;;;;;;0.10;0.10;;;16.30;99.90;;;;;;5133489;27;20039;-62
2023/08/28 08:45:37;;;;;;;0.10;0.10;;;16.50;99.90;;;;;;5115092;27;20047;-64
2023/08/28 08:48:07;;;;;;;0.10;0.10;;;16.20;99.90;;;;;;5133322;27;20058;-62
2023/08/28 08:50:36;;;;;;;0.10;0.10;;;16.80;99.90;;;;;;5133442;27;20046;-63
2023/08/28 08:53:25;;;;;;;0.03;0.03;;;16.30;99.90;;;;;;5133504;27;20035;-61
2023/08/28 08:55:54;;;;;;;0.10;0.10;;;16.20;99.90;;;;;;5133328;27;20049;-62
2023/08/28 08:58:21;;;;;;;0.10;0.10;;;16.50;99.90;;;;;;5133348;27;20047;-61
2023/08/28 09:00:48;;;;;;;0.10;0.10;;;16.10;99.90;;;;;;5133307;27;20111;-62
2023/08/28 09:03:14;;;;;;;0.10;0.10;;;16.60;99.90;;;;;;5133082;27;20039;-63
2023/08/28 09:05:41;;;;;;;0.20;0.20;;;16.40;99.90;;;;;;5133215;27;20108;-61
2023/08/28 09:08:08;;;;;;;0.10;0.10;;;16.50;99.90;;;;;;5133329;27;20059;-62
2023/08/28 09:10:34;;;;;;;0.22;0.22;;;16.40;99.90;;;;;;5133469;27;20464;-64
2023/08/28 09:13:00;;;;;;;0.20;0.20;;;16.60;99.90;;;;;;5133192;27;20043;-62
2023/08/28 09:15:26;;;;;;;0.25;0.25;;;16.80;99.90;;;;;;5133027;27;20432;-61
2023/08/28 09:17:52;;;;;;;0.25;0.25;;;17.10;99.90;;;;;;5132958;27;20150;-61
2023/08/28 09:20:20;;;;;;;0.98;0.45;;;17.20;99.90;;;;;;5132912;27;20047;-62
2023/08/28 09:22:47;;;;;;;0.25;0.25;;;17.90;99.90;;;;;;5132725;27;20031;-61
2023/08/28 09:25:15;;;;;;;0.10;0.10;;;17.80;99.90;;;;;;5132844;27;20051;-62
2023/08/28 09:27:45;;;;;;;0.10;0.10;;;17.80;99.90;;;;;;5132848;27;20509;-62
2023/08/28 09:30:31;;;;;;;0.43;0.43;;;18.60;99.90;;;;;;5132644;27;20122;-62
2023/08/28 09:32:59;;;;;;;0.17;0.17;;;18.20;99.90;;;;;;5132393;27;20043;-62
2023/08/28 09:35:34;;;;;;;0.10;0.10;;;18.10;99.90;;;;;;5132525;27;20043;-63
2023/08/28 09:38:00;;;;;;;0.28;0.22;;;18.20;99.90;;;;;;5132788;27;20407;-63
2023/08/28 09:40:34;;;;;;;0.10;0.10;;;18.40;99.90;;;;;;5132305;27;20399;-62
2023/08/28 09:43:00;;;;;;;0.20;0.20;;;18.60;99.90;;;;;;5132554;27;20055;-63
2023/08/28 09:45:31;;;;;;;0.10;0.10;;;19.00;99.90;;;;;;5132148;27;20502;-63
2023/08/28 09:47:57;;;;;;;0.15;0.15;;;19.20;99.90;;;;;;5132111;27;20542;-62
2023/08/28 09:50:24;;;;;;;0.10;0.10;;;19.10;99.90;;;;;;5132750;27;20091;-63
2023/08/28 09:52:50;;;;;;;0.20;0.20;;;18.90;99.90;;;;;;5132160;27;20432;-64
2023/08/28 09:55:16;;;;;;;0.25;0.20;;;19.10;99.90;;;;;;5132043;27;20093;-63
2023/08/28 09:57:44;;;;;;;0.10;0.10;;;18.80;99.90;;;;;;5132203;27;20133;-62
2023/08/28 10:00:12;;;;;;;0.05;0.05;;;18.60;99.90;;;;;;5132427;27;20043;-62
2023/08/28 10:02:39;;;;;;;0.05;0.05;;;18.80;99.90;;;;;;5132228;27;20051;-63
2023/08/28 10:05:08;;;;;;;0.10;0.10;;;19.00;99.90;;;;;;5132138;28;20321;-62
2023/08/28 10:07:38;;;;;;;0.10;0.10;;;18.70;99.90;;;;;;5132340;28;20099;-62
2023/08/28 10:10:06;;;;;;;0.10;0.10;;;18.40;99.90;;;;;;5132183;28;20074;-61
2023/08/28 10:12:35;;;;;;;0.13;0.13;;;18.60;99.90;;;;;;5131959;28;20406;-63
2023/08/28 10:15:03;;;;;;;0.10;0.10;;;18.50;99.90;;;;;;5113979;28;20089;-62
2023/08/28 10:17:32;;;;;;;7.55;0.40;;;18.50;99.90;;;;;;5131799;28;20550;-62
2023/08/28 10:20:00;;;;;;;0.00;0.00;;;18.70;99.90;;;;;;5132157;28;20184;-62
2023/08/28 10:22:27;;;;;;;0.03;0.03;;;18.50;99.90;;;;;;5132134;28;20043;-61
2023/08/28 10:24:56;;;;;;;0.75;0.75;;;18.70;99.90;;;;;;5131834;28;20548;-63
2023/08/28 10:27:23;;;;;;;0.10;0.10;;;18.70;99.90;;;;;;5132301;28;20039;-61
2023/08/28 10:29:49;;;;;;;0.10;0.10;;;18.50;99.90;;;;;;5132449;28;20130;-62
2023/08/28 10:32:15;;;;;;;0.22;0.10;;;18.90;99.90;;;;;;5132344;28;20039;-62
2023/08/28 10:34:42;;;;;;;0.15;0.15;;;19.00;99.90;;;;;;5131818;28;20483;-62
2023/08/28 10:37:12;;;;;;;0.10;0.10;;;18.70;99.90;;;;;;5132096;28;20039;-62
2023/08/28 10:39:41;;;;;;;0.10;0.10;;;19.10;99.90;;;;;;5132059;28;20149;-62
2023/08/28 10:42:15;;;;;;;0.00;0.00;;;19.00;99.90;;;;;;5131808;28;20085;-63
2023/08/28 10:44:42;;;;;;;0.10;0.10;;;19.20;99.90;;;;;;5132317;28;20524;-61
2023/08/28 10:47:08;;;;;;;0.10;0.10;;;19.10;99.90;;;;;;5131912;28;20086;-62
2023/08/28 10:49:34;;;;;;;0.10;0.10;;;19.20;99.90;;;;;;5131972;28;20108;-62
2023/08/28 10:52:06;;;;;;;0.90;0.90;;;18.80;99.90;;;;;;5131728;28;20047;-62
2023/08/28 10:54:40;;;;;;;0.38;0.38;;;19.10;99.90;;;;;;5132058;28;20047;-61
2023/08/28 10:57:10;;;;;;;0.10;0.10;;;19.30;99.90;;;;;;5131784;28;20131;-62
2023/08/28 10:59:45;;;;;;;0.10;0.10;;;19.40;99.90;;;;;;5131852;28;20065;-62
2023/08/28 11:02:11;;;;;;;0.10;0.10;;;19.40;99.90;;;;;;5131641;28;20080;-62
2023/08/28 11:04:39;;;;;;;0.08;0.08;;;19.60;99.90;;;;;;5131317;28;20098;-62
2023/08/28 11:07:27;;;;;;;0.35;0.35;;;19.40;99.90;;;;;;5131689;28;20050;-63
2023/08/28 11:10:20;;;;;;;0.10;0.10;;;19.40;99.90;;;;;;5133077;27;20054;-63
2023/08/28 11:13:04;;;;;;;0.10;0.10;;;19.40;99.90;;;;;;5135512;27;20050;-62
2023/08/28 11:15:33;;;;;;;0.20;0.15;;;18.90;99.90;;;;;;5135393;27;20043;-62
2023/08/28 11:18:28;;;;;;;0.10;0.10;;;19.10;99.90;;;;;;5135360;27;20050;-62
2023/08/28 11:20:59;;;;;;;0.10;0.10;;;19.00;99.90;;;;;;5135275;27;20059;-62
2023/08/28 11:23:34;;;;;;;0.10;0.10;;;19.30;99.90;;;;;;5135310;27;20436;-62
2023/08/28 11:26:04;;;;;;;0.00;0.00;;;18.70;99.90;;;;;;5135491;27;20086;-62
2023/08/28 11:28:43;;;;;;;0.10;0.10;;;19.00;99.90;;;;;;5135554;27;20108;-63
2023/08/28 11:31:09;;;;;;;0.00;0.00;;;19.10;99.90;;;;;;5135222;27;20533;-63
2023/08/28 11:33:46;;;;;;;0.00;0.00;;;19.30;99.90;;;;;;5135048;27;20075;-62
2023/08/28 11:36:18;;;;;;;0.00;0.00;;;19.30;99.90;;;;;;5135385;27;20124;-62
2023/08/28 11:38:45;;;;;;;0.10;0.10;;;19.00;99.90;;;;;;5135020;27;20416;-63
2023/08/28 11:41:11;;;;;;;0.20;0.20;;;19.00;99.90;;;;;;5134954;27;20108;-62
2023/08/28 11:43:38;;;;;;;0.05;0.05;;;19.10;99.90;;;;;;5134829;27;20391;-61
2023/08/28 11:46:04;;;;;;;0.22;0.17;;;19.60;99.90;;;;;;5134885;27;20562;-64
2023/08/28 11:48:37;;;;;;;1.58;1.13;;;19.70;99.90;;;;;;5134653;27;20090;-62
2023/08/28 11:51:05;;;;;;;0.03;0.03;;;19.70;99.90;;;;;;5134417;27;20082;-62
2023/08/28 11:53:40;;;;;;;0.20;0.20;;;19.90;99.90;;;;;;5134483;27;20039;-60
2023/08/28 11:56:06;;;;;;;0.10;0.10;;;19.90;99.90;;;;;;5134647;27;20043;-62
2023/08/28 11:58:33;;;;;;;0.10;0.10;;;20.10;99.90;;;;;;5132994;27;20486;-61
2023/08/28 12:01:08;;;;;;;0.10;0.10;;;20.30;99.90;;;;;;5141717;27;20050;-62
2023/08/28 12:03:37;;;;;;;0.00;0.00;;;20.40;99.90;;;;;;5154324;27;20043;-62
2023/08/28 12:06:12;;;;;;;0.30;0.30;;;20.50;99.90;;;;;;5153482;27;20732;-60
2023/08/28 12:08:41;;;;;;;0.52;0.52;;;20.50;99.90;;;;;;5154697;27;20047;-61
2023/08/28 12:11:09;;;;;;;0.00;0.00;;;20.30;99.90;;;;;;5154733;27;20051;-60
2023/08/28 12:13:35;;;;;;;0.10;0.10;;;20.70;99.90;;;;;;5154276;27;20082;-61
2023/08/28 12:16:12;;;;;;;0.20;0.20;;;20.40;99.90;;;;;;5154449;27;20478;-60
2023/08/28 12:18:46;;;;;;;0.20;0.20;;;20.00;99.90;;;;;;5154416;27;20047;-61
2023/08/28 12:21:12;;;;;;;0.10;0.10;;;20.40;99.90;;;;;;5154295;27;20486;-61
2023/08/28 12:23:56;;;;;;;0.20;0.20;;;20.60;99.90;;;;;;5154284;27;20054;-60
2023/08/28 12:26:24;;;;;;;0.10;0.10;;;20.30;99.90;;;;;;5154551;27;20050;-61
2023/08/28 12:28:50;;;;;;;0.03;0.03;;;20.90;99.90;;;;;;5154605;27;20445;-61
2023/08/28 12:31:27;;;;;;;0.00;0.00;;;20.60;99.90;;;;;;5154126;27;20129;-62
2023/08/28 12:33:54;;;;;;;0.30;0.30;;;20.60;99.90;;;;;;5154364;27;20101;-61
2023/08/28 12:36:26;;;;;;;0.22;0.10;;;20.90;99.90;;;;;;5154280;27;20055;-61
2023/08/28 12:38:52;;;;;;;0.20;0.20;;;20.80;99.90;;;;;;5153811;27;20524;-61
2023/08/28 12:41:17;;;;;;;0.05;0.05;;;20.50;99.90;;;;;;5154225;27;20092;-60
2023/08/28 12:43:46;;;;;;;0.00;0.00;;;21.10;99.90;;;;;;5153869;27;20039;-61
2023/08/28 12:46:14;;;;;;;0.30;0.30;;;21.30;99.90;;;;;;5153830;27;20402;-63
2023/08/28 12:48:39;;;;;;;0.00;0.00;;;21.20;99.90;;;;;;5153663;27;20460;-61
2023/08/28 12:51:05;;;;;;;0.10;0.10;;;21.30;99.90;;;;;;5153912;27;20089;-61
2023/08/28 12:53:31;;;;;;;0.00;0.00;;;21.40;99.90;;;;;;5153609;27;20059;-62
2023/08/28 12:55:57;;;;;;;0.88;0.85;;;21.10;99.90;;;;;;5153605;27;20062;-60